Time;durP1;ratioP1;P1;durP2;ratioP2;P2;SDS_P1;SDS_P2;PMS_P1;PMS_P2;Temp;Humidity;BMP_temperature;BMP_pressure;BME280_temperature;BME280_humidity;BME280_pressure;Samples;Min_cycle;Max_cycle;Signal;HPM_P1;HPM_P2
2021/08/08 00:01:31;;;;;;;1.50;1.40;;;17.10;99.90;;;;;;5027412;28;20208;-82
2021/08/08 00:03:58;;;;;;;2.47;1.67;;;17.10;99.90;;;;;;5025858;28;20219;-82
2021/08/08 00:06:25;;;;;;;1.33;1.23;;;17.10;99.90;;;;;;5021985;28;20258;-82
2021/08/08 00:08:53;;;;;;;2.65;1.60;;;17.10;99.90;;;;;;5018971;28;20214;-82
2021/08/08 00:11:20;;;;;;;1.70;1.52;;;17.00;99.90;;;;;;5026707;28;20243;-82
2021/08/08 00:13:48;;;;;;;1.30;1.20;;;17.00;99.90;;;;;;5024478;28;20224;-82
2021/08/08 00:16:15;;;;;;;1.90;1.48;;;17.00;99.90;;;;;;5024796;28;20224;-82
2021/08/08 00:18:42;;;;;;;2.80;1.10;;;17.10;99.90;;;;;;5023789;28;20212;-82
2021/08/08 00:21:09;;;;;;;0.90;0.90;;;17.10;99.90;;;;;;5025227;28;20214;-82
2021/08/08 00:23:36;;;;;;;1.35;0.98;;;17.10;99.90;;;;;;5023203;28;20196;-82
2021/08/08 00:26:04;;;;;;;2.58;1.40;;;17.20;99.90;;;;;;5024213;28;20228;-82
2021/08/08 00:28:31;;;;;;;1.20;1.05;;;17.10;99.90;;;;;;5025619;28;20227;-82
2021/08/08 00:30:58;;;;;;;2.08;1.08;;;17.20;99.90;;;;;;5023435;28;20204;-82
2021/08/08 00:33:26;;;;;;;1.30;1.20;;;17.10;99.90;;;;;;5027587;28;20200;-82
2021/08/08 00:35:52;;;;;;;1.00;1.00;;;17.10;99.90;;;;;;5027100;28;20216;-82
2021/08/08 00:38:19;;;;;;;1.35;0.90;;;17.00;99.90;;;;;;5026527;28;20227;-82
2021/08/08 00:40:47;;;;;;;1.38;1.00;;;16.80;99.90;;;;;;5020792;28;20208;-82
2021/08/08 00:43:15;;;;;;;1.20;1.10;;;16.90;99.90;;;;;;5027771;28;20216;-82
2021/08/08 00:45:42;;;;;;;2.97;1.10;;;16.80;99.90;;;;;;5035557;28;20220;-82
2021/08/08 00:48:09;;;;;;;0.85;0.82;;;16.80;99.90;;;;;;5026209;28;20205;-82
2021/08/08 00:50:37;;;;;;;0.80;0.80;;;16.70;99.90;;;;;;5024830;28;20258;-82
2021/08/08 00:53:06;;;;;;;0.82;0.70;;;16.70;99.90;;;;;;5025152;28;20311;-82
2021/08/08 00:55:33;;;;;;;2.72;0.93;;;16.60;99.90;;;;;;5025358;28;20284;-82
2021/08/08 00:58:00;;;;;;;1.67;0.73;;;16.60;99.90;;;;;;5025762;28;20212;-82
2021/08/08 01:00:28;;;;;;;1.55;0.90;;;16.60;99.90;;;;;;5026227;28;20220;-82
2021/08/08 01:03:00;;;;;;;2.90;0.80;;;16.50;99.90;;;;;;5027650;28;20201;-82
2021/08/08 01:05:34;;;;;;;1.27;0.70;;;16.50;99.90;;;;;;5033821;28;20295;-83
2021/08/08 01:08:05;;;;;;;0.93;0.60;;;16.50;99.90;;;;;;5028000;28;20254;-82
2021/08/08 01:10:33;;;;;;;1.85;0.80;;;16.40;99.90;;;;;;5027006;28;20205;-82
2021/08/08 01:13:02;;;;;;;0.98;0.68;;;16.20;99.90;;;;;;5026251;28;20244;-82
2021/08/08 01:15:30;;;;;;;1.38;0.70;;;16.30;99.90;;;;;;5027785;28;20271;-82
2021/08/08 01:17:59;;;;;;;0.70;0.70;;;16.30;99.90;;;;;;5027543;28;20223;-83
2021/08/08 01:20:29;;;;;;;2.53;0.50;;;16.30;99.90;;;;;;5026441;28;20235;-82
2021/08/08 01:22:59;;;;;;;1.23;0.50;;;16.10;99.90;;;;;;5023350;28;20417;-82
2021/08/08 01:25:28;;;;;;;2.00;0.60;;;16.20;99.90;;;;;;5024719;28;20232;-83
2021/08/08 01:27:59;;;;;;;1.02;0.50;;;16.30;99.90;;;;;;5025641;28;20247;-82
2021/08/08 01:30:26;;;;;;;1.45;1.00;;;16.10;99.90;;;;;;5025424;28;20204;-82
2021/08/08 01:33:00;;;;;;;1.05;0.85;;;16.10;99.90;;;;;;5025638;28;20288;-82
2021/08/08 01:35:27;;;;;;;2.15;1.13;;;16.00;99.90;;;;;;5023577;28;20209;-83
2021/08/08 01:37:53;;;;;;;1.52;0.60;;;16.10;99.90;;;;;;5024333;28;20247;-82
2021/08/08 01:40:24;;;;;;;2.17;1.08;;;16.00;99.90;;;;;;5025440;28;20230;-82
2021/08/08 01:42:56;;;;;;;1.33;0.73;;;15.90;99.90;;;;;;5022469;28;20211;-83
2021/08/08 01:45:23;;;;;;;2.08;0.70;;;15.90;99.90;;;;;;5025824;28;20272;-82
2021/08/08 01:47:54;;;;;;;0.65;0.60;;;15.90;99.90;;;;;;5025353;28;20275;-82
2021/08/08 01:50:21;;;;;;;1.38;0.50;;;15.90;99.90;;;;;;5025934;28;20239;-83
2021/08/08 01:52:49;;;;;;;2.10;0.55;;;15.80;99.90;;;;;;5025094;28;20224;-82
2021/08/08 01:55:17;;;;;;;2.87;0.60;;;15.70;99.90;;;;;;5025199;28;20259;-82
2021/08/08 01:57:44;;;;;;;1.63;0.70;;;15.80;99.90;;;;;;5022859;28;20295;-82
2021/08/08 02:00:14;;;;;;;2.33;0.70;;;15.70;99.90;;;;;;5023632;28;20240;-82
2021/08/08 02:02:50;;;;;;;0.83;0.60;;;15.70;99.90;;;;;;5021876;28;20244;-82
2021/08/08 02:05:19;;;;;;;1.53;1.10;;;15.70;99.90;;;;;;5025088;28;20227;-82
2021/08/08 02:07:46;;;;;;;2.40;0.60;;;15.60;99.90;;;;;;5024130;28;20295;-82
2021/08/08 02:10:13;;;;;;;0.57;0.57;;;15.40;99.90;;;;;;5018752;28;20220;-82
2021/08/08 02:12:40;;;;;;;1.27;1.02;;;15.50;99.90;;;;;;5016071;28;20296;-82
2021/08/08 02:15:09;;;;;;;4.47;0.70;;;15.60;99.90;;;;;;5017005;28;20201;-82
2021/08/08 02:17:37;;;;;;;1.33;0.80;;;15.50;99.90;;;;;;5019116;28;20264;-82
2021/08/08 02:20:06;;;;;;;2.43;0.80;;;15.30;99.90;;;;;;5014404;28;20205;-83
2021/08/08 02:22:33;;;;;;;1.90;0.97;;;15.50;99.90;;;;;;5017200;28;20259;-82
2021/08/08 02:25:00;;;;;;;1.20;0.90;;;15.50;99.90;;;;;;5014807;28;20264;-82
2021/08/08 02:27:27;;;;;;;0.75;0.75;;;15.50;99.90;;;;;;5016087;28;20309;-82
2021/08/08 02:29:54;;;;;;;1.40;0.70;;;15.50;99.90;;;;;;5021275;28;20224;-82
2021/08/08 02:32:21;;;;;;;1.80;0.70;;;15.60;99.90;;;;;;5017943;28;20235;-82
2021/08/08 02:34:49;;;;;;;0.63;0.60;;;15.60;99.90;;;;;;5013141;28;20279;-82
2021/08/08 02:37:16;;;;;;;1.40;0.60;;;15.60;99.90;;;;;;5020781;28;20255;-82
2021/08/08 02:39:43;;;;;;;2.30;0.67;;;15.50;99.90;;;;;;5023185;28;20268;-82
2021/08/08 02:42:10;;;;;;;1.40;0.90;;;15.70;99.90;;;;;;5019753;28;20223;-82
2021/08/08 02:44:36;;;;;;;1.57;0.83;;;15.60;99.90;;;;;;5021167;28;20259;-82
2021/08/08 02:47:04;;;;;;;0.83;0.83;;;15.60;99.90;;;;;;5014321;28;20259;-82
2021/08/08 02:49:30;;;;;;;0.63;0.60;;;15.50;99.90;;;;;;5021974;28;20211;-82
2021/08/08 02:51:58;;;;;;;1.70;0.97;;;15.50;99.90;;;;;;5023489;28;20220;-82
2021/08/08 02:54:25;;;;;;;1.73;0.70;;;15.50;99.90;;;;;;5025639;28;20239;-83
2021/08/08 02:56:52;;;;;;;1.43;0.97;;;15.30;99.90;;;;;;5016470;28;20236;-82
2021/08/08 02:59:19;;;;;;;0.98;0.90;;;15.20;99.90;;;;;;5014998;28;20232;-82
2021/08/08 03:01:46;;;;;;;1.57;0.83;;;15.20;99.90;;;;;;5016924;28;20251;-83
2021/08/08 03:04:13;;;;;;;1.00;0.70;;;15.40;99.90;;;;;;5021595;28;20268;-83
2021/08/08 03:06:45;;;;;;;0.80;0.80;;;15.30;99.90;;;;;;5025398;28;20256;-82
2021/08/08 03:09:13;;;;;;;0.80;0.70;;;15.20;99.90;;;;;;5025722;28;20208;-82
2021/08/08 03:11:45;;;;;;;1.23;0.90;;;15.20;99.90;;;;;;5022931;28;20271;-83
2021/08/08 03:14:13;;;;;;;5.13;0.90;;;15.30;99.90;;;;;;5019761;28;20231;-82
2021/08/08 03:16:40;;;;;;;1.88;1.15;;;15.50;99.90;;;;;;5025832;28;20224;-82
2021/08/08 03:19:06;;;;;;;1.60;0.90;;;15.30;99.90;;;;;;5026448;28;20283;-82
2021/08/08 03:21:33;;;;;;;2.55;1.10;;;15.40;99.90;;;;;;5031474;28;20203;-82
2021/08/08 03:24:00;;;;;;;1.00;0.80;;;15.60;99.90;;;;;;5028308;28;20232;-82
2021/08/08 03:26:29;;;;;;;1.63;0.90;;;15.70;99.90;;;;;;5028494;28;20228;-82
2021/08/08 03:28:56;;;;;;;1.97;1.03;;;15.50;99.90;;;;;;5028501;28;20299;-83
2021/08/08 03:31:23;;;;;;;1.50;0.98;;;15.60;99.90;;;;;;5019762;28;20231;-83
2021/08/08 03:33:49;;;;;;;1.00;0.90;;;15.60;99.90;;;;;;5020079;28;20319;-82
2021/08/08 03:36:16;;;;;;;1.43;0.80;;;15.60;99.90;;;;;;5016292;28;20250;-83
2021/08/08 03:38:43;;;;;;;0.70;0.70;;;15.80;99.90;;;;;;5010225;28;20279;-83
2021/08/08 03:41:10;;;;;;;2.13;0.80;;;15.80;99.90;;;;;;5019098;28;20219;-82
2021/08/08 03:43:38;;;;;;;2.70;1.10;;;15.90;99.90;;;;;;5008216;28;20261;-82
2021/08/08 03:46:05;;;;;;;0.97;0.80;;;15.90;99.90;;;;;;5017815;28;20256;-82
2021/08/08 03:48:32;;;;;;;2.07;0.90;;;16.00;99.90;;;;;;5008541;28;20205;-82
2021/08/08 03:50:59;;;;;;;1.53;0.83;;;16.00;99.90;;;;;;5021466;28;20268;-82
2021/08/08 03:53:26;;;;;;;0.90;0.90;;;16.00;99.90;;;;;;5015123;28;20244;-82
2021/08/08 03:55:53;;;;;;;2.80;1.17;;;16.10;99.90;;;;;;5018737;28;20586;-82
2021/08/08 03:58:20;;;;;;;2.43;1.20;;;16.10;99.90;;;;;;5019799;28;20291;-82
2021/08/08 04:00:48;;;;;;;2.60;0.97;;;16.20;99.90;;;;;;5020393;28;20685;-82
2021/08/08 04:03:15;;;;;;;2.27;1.17;;;16.40;99.90;;;;;;5021571;28;20231;-82
2021/08/08 04:05:42;;;;;;;2.63;1.00;;;16.20;99.90;;;;;;5015886;28;20255;-82
2021/08/08 04:08:08;;;;;;;2.37;0.90;;;16.40;99.90;;;;;;5020795;28;20292;-83
2021/08/08 04:10:35;;;;;;;1.80;1.00;;;16.80;99.90;;;;;;5013511;28;20216;-82
2021/08/08 04:13:02;;;;;;;1.10;1.00;;;16.90;99.90;;;;;;5024750;28;20256;-83
2021/08/08 04:15:29;;;;;;;1.20;1.10;;;16.80;99.90;;;;;;5030213;28;20291;-82
2021/08/08 04:17:57;;;;;;;2.60;1.05;;;16.60;99.90;;;;;;5036461;28;20236;-82
2021/08/08 04:20:24;;;;;;;5.82;1.05;;;16.40;99.90;;;;;;5027094;28;20205;-82
2021/08/08 04:22:51;;;;;;;1.58;1.20;;;16.30;99.90;;;;;;5021216;28;20268;-83
2021/08/08 04:25:18;;;;;;;1.70;0.63;;;16.30;99.90;;;;;;5024131;28;20242;-82
2021/08/08 04:27:44;;;;;;;2.50;0.98;;;16.30;99.90;;;;;;5026593;28;20260;-82
2021/08/08 04:30:12;;;;;;;2.78;0.80;;;16.10;99.90;;;;;;5034793;28;20214;-82
2021/08/08 04:32:39;;;;;;;1.80;0.77;;;16.30;99.90;;;;;;5029217;28;20329;-83
2021/08/08 04:35:08;;;;;;;1.67;0.90;;;16.20;99.90;;;;;;5023935;28;20493;-82
2021/08/08 04:37:35;;;;;;;2.03;0.98;;;16.40;99.90;;;;;;5013024;28;20209;-82
2021/08/08 04:40:02;;;;;;;2.03;1.00;;;16.30;99.90;;;;;;5024079;28;20205;-81
2021/08/08 04:42:28;;;;;;;2.38;1.08;;;16.40;99.90;;;;;;5007607;28;20289;-81
2021/08/08 04:44:55;;;;;;;1.05;1.02;;;16.40;99.90;;;;;;5018207;28;20255;-81
2021/08/08 04:47:22;;;;;;;1.30;1.00;;;16.40;99.90;;;;;;5009192;28;20247;-81
2021/08/08 04:49:49;;;;;;;3.80;2.70;;;16.40;99.90;;;;;;5019284;28;20295;-81
2021/08/08 04:52:17;;;;;;;26.58;21.67;;;16.40;99.90;;;;;;5011682;28;20232;-81
2021/08/08 04:54:44;;;;;;;1.13;1.05;;;16.50;99.90;;;;;;5024479;28;21003;-81
2021/08/08 04:57:11;;;;;;;2.25;1.42;;;16.50;99.90;;;;;;5020105;28;20228;-81
2021/08/08 04:59:38;;;;;;;1.33;1.23;;;16.50;99.90;;;;;;5011206;28;20296;-81
2021/08/08 05:02:05;;;;;;;3.28;1.30;;;16.50;99.90;;;;;;5012645;28;20275;-81
2021/08/08 05:04:32;;;;;;;1.58;1.42;;;16.60;99.90;;;;;;5015251;28;20300;-82
2021/08/08 05:06:59;;;;;;;2.65;1.20;;;16.60;99.90;;;;;;5014471;28;20665;-82
2021/08/08 05:09:27;;;;;;;1.50;1.40;;;16.60;99.90;;;;;;5013206;28;20292;-82
2021/08/08 05:11:54;;;;;;;7.67;5.67;;;16.70;99.90;;;;;;5012849;28;20242;-82
2021/08/08 05:14:20;;;;;;;2.80;2.37;;;16.70;99.90;;;;;;5005223;28;20781;-82
2021/08/08 05:16:47;;;;;;;1.80;1.70;;;16.70;99.90;;;;;;5011366;28;20310;-82
2021/08/08 05:19:14;;;;;;;4.77;1.73;;;16.80;99.90;;;;;;5015732;28;20228;-82
2021/08/08 05:21:41;;;;;;;2.00;1.33;;;16.80;99.90;;;;;;5012056;28;20240;-82
2021/08/08 05:24:08;;;;;;;3.08;1.60;;;16.70;99.90;;;;;;5002975;28;20205;-82
2021/08/08 05:26:36;;;;;;;2.20;1.60;;;16.80;99.90;;;;;;5009108;28;20703;-81
2021/08/08 05:29:03;;;;;;;3.58;1.80;;;16.90;99.90;;;;;;5006831;28;20238;-82
2021/08/08 05:31:30;;;;;;;1.85;1.40;;;16.90;99.90;;;;;;5015129;28;20233;-82
2021/08/08 05:33:57;;;;;;;1.75;1.65;;;16.90;99.90;;;;;;5017438;28;20259;-80
2021/08/08 05:36:24;;;;;;;2.30;2.03;;;17.00;99.90;;;;;;5008806;28;20228;-82
2021/08/08 05:38:51;;;;;;;2.77;1.80;;;17.10;99.90;;;;;;5020094;28;20212;-81
2021/08/08 05:41:17;;;;;;;1.98;1.73;;;17.00;99.90;;;;;;5022884;28;20279;-81
2021/08/08 05:43:46;;;;;;;4.22;1.73;;;17.10;99.90;;;;;;5007253;28;20200;-80
2021/08/08 05:46:12;;;;;;;3.60;2.13;;;17.10;99.90;;;;;;5004940;28;20280;-82
2021/08/08 05:48:39;;;;;;;3.05;2.08;;;17.10;99.90;;;;;;5012544;28;20299;-78
2021/08/08 05:51:06;;;;;;;1.90;1.70;;;17.20;99.90;;;;;;5011402;28;20232;-80
2021/08/08 05:53:33;;;;;;;4.63;2.13;;;17.30;99.90;;;;;;5011975;28;20304;-80
2021/08/08 05:56:00;;;;;;;2.95;1.85;;;17.30;99.90;;;;;;5010481;28;20308;-80
2021/08/08 05:58:27;;;;;;;2.67;2.08;;;17.30;99.90;;;;;;5009219;28;20220;-80
2021/08/08 06:00:55;;;;;;;2.38;1.75;;;17.40;99.90;;;;;;5007973;28;20274;-81
2021/08/08 06:03:22;;;;;;;2.17;1.77;;;17.40;99.90;;;;;;5015262;28;20240;-81
2021/08/08 06:05:49;;;;;;;3.40;1.98;;;17.30;99.90;;;;;;5016618;28;20322;-79
2021/08/08 06:08:15;;;;;;;4.78;1.88;;;17.30;99.90;;;;;;5017281;28;20228;-80
2021/08/08 06:10:43;;;;;;;3.80;1.90;;;17.20;99.90;;;;;;5016007;28;20264;-81
2021/08/08 06:13:10;;;;;;;3.30;2.60;;;17.30;99.90;;;;;;5015120;28;20228;-80
2021/08/08 06:15:37;;;;;;;2.40;2.20;;;17.40;99.90;;;;;;5011118;28;20231;-81
2021/08/08 06:18:05;;;;;;;3.28;1.90;;;17.40;99.90;;;;;;5011351;28;20216;-81
2021/08/08 06:20:32;;;;;;;2.97;1.92;;;17.40;99.90;;;;;;5012680;28;20734;-81
2021/08/08 06:22:59;;;;;;;2.47;1.88;;;17.50;99.90;;;;;;5013014;28;20264;-80
2021/08/08 06:25:25;;;;;;;3.17;1.98;;;17.40;99.90;;;;;;5012513;28;20260;-80
2021/08/08 06:27:52;;;;;;;5.95;2.17;;;17.50;99.90;;;;;;5015827;28;20224;-81
2021/08/08 06:30:19;;;;;;;3.30;1.85;;;17.60;99.90;;;;;;5012328;28;20228;-80
2021/08/08 06:32:46;;;;;;;2.47;1.63;;;17.60;99.90;;;;;;5007700;28;20208;-81
2021/08/08 06:35:14;;;;;;;2.50;1.63;;;17.60;99.90;;;;;;5013094;28;20264;-81
2021/08/08 06:37:43;;;;;;;3.97;2.05;;;17.70;99.90;;;;;;5006417;28;20248;-80
2021/08/08 06:40:11;;;;;;;3.38;2.15;;;17.70;99.90;;;;;;5011995;28;20426;-80
2021/08/08 06:42:38;;;;;;;3.20;1.75;;;17.70;99.90;;;;;;5010098;28;20287;-81
2021/08/08 06:45:05;;;;;;;2.65;1.98;;;17.80;99.90;;;;;;5012290;28;20291;-81
2021/08/08 06:47:32;;;;;;;4.82;1.95;;;17.90;99.90;;;;;;5016057;28;20308;-81
2021/08/08 06:49:59;;;;;;;2.08;1.85;;;18.10;99.90;;;;;;5014250;28;20214;-80
2021/08/08 06:52:28;;;;;;;4.85;2.28;;;18.10;99.90;;;;;;5014862;28;20236;-80
2021/08/08 06:54:54;;;;;;;4.38;2.00;;;18.10;99.90;;;;;;5012301;28;20259;-80
2021/08/08 06:57:25;;;;;;;6.60;2.72;;;18.20;99.90;;;;;;5009919;28;20252;-81
2021/08/08 06:59:52;;;;;;;2.72;1.90;;;18.30;99.90;;;;;;5016115;28;20674;-80
2021/08/08 07:02:19;;;;;;;5.55;2.97;;;18.40;99.90;;;;;;5008693;28;20204;-81
2021/08/08 07:04:46;;;;;;;3.45;2.60;;;18.50;99.90;;;;;;5006830;28;20224;-82
2021/08/08 07:07:14;;;;;;;4.45;1.90;;;18.50;99.90;;;;;;5015113;28;20397;-80
2021/08/08 07:09:43;;;;;;;6.65;2.40;;;18.40;99.90;;;;;;5015306;28;20235;-80
2021/08/08 07:12:10;;;;;;;3.92;2.20;;;18.40;99.90;;;;;;5014648;28;20215;-81
2021/08/08 07:14:37;;;;;;;4.35;2.55;;;18.40;99.90;;;;;;5009492;28;20224;-82
2021/08/08 07:17:05;;;;;;;3.25;2.03;;;18.40;99.90;;;;;;5016762;28;20222;-81
2021/08/08 07:19:32;;;;;;;4.45;2.40;;;18.40;99.90;;;;;;5009797;28;20207;-85
2021/08/08 07:21:59;;;;;;;6.63;2.75;;;18.50;99.90;;;;;;5012646;28;20212;-81
2021/08/08 07:24:25;;;;;;;4.30;2.22;;;18.50;99.90;;;;;;5009427;28;20238;-81
2021/08/08 07:26:54;;;;;;;4.72;2.83;;;18.70;99.90;;;;;;5009475;28;20234;-81
2021/08/08 07:29:21;;;;;;;5.57;2.13;;;18.70;99.90;;;;;;5010752;28;20225;-81
2021/08/08 07:31:48;;;;;;;4.50;2.35;;;18.80;99.90;;;;;;5013670;28;20235;-81
2021/08/08 07:34:15;;;;;;;4.43;2.15;;;18.70;99.90;;;;;;5012150;28;20253;-80
2021/08/08 07:36:42;;;;;;;2.92;1.80;;;18.90;99.90;;;;;;5007842;28;20228;-80
2021/08/08 07:39:09;;;;;;;4.05;1.90;;;19.10;99.90;;;;;;5006004;28;20729;-81
2021/08/08 07:41:36;;;;;;;5.47;2.13;;;19.30;99.90;;;;;;5010665;28;20236;-80
2021/08/08 07:44:04;;;;;;;5.15;2.50;;;19.20;99.90;;;;;;5021527;28;20259;-81
2021/08/08 07:46:31;;;;;;;4.75;2.30;;;19.10;99.90;;;;;;5022838;28;20258;-80
2021/08/08 07:48:58;;;;;;;3.30;2.20;;;19.10;99.90;;;;;;5023492;28;20287;-81
2021/08/08 07:51:26;;;;;;;4.85;2.20;;;19.30;99.90;;;;;;5021479;28;20227;-80
2021/08/08 07:53:53;;;;;;;5.43;2.58;;;19.20;99.90;;;;;;5022642;28;20227;-80
2021/08/08 07:56:20;;;;;;;5.95;2.47;;;19.10;99.90;;;;;;5022508;28;20695;-80
2021/08/08 07:58:47;;;;;;;4.45;1.90;;;19.10;99.90;;;;;;5030786;28;20302;-81
2021/08/08 08:01:15;;;;;;;5.38;2.20;;;19.00;99.90;;;;;;5031204;28;20279;-81
2021/08/08 08:03:42;;;;;;;4.55;1.95;;;19.20;99.90;;;;;;5018562;28;20271;-81
2021/08/08 08:06:09;;;;;;;6.68;2.10;;;19.20;99.90;;;;;;5015273;28;20255;-80
2021/08/08 08:08:35;;;;;;;4.70;1.88;;;19.50;99.90;;;;;;5017365;28;20214;-81
2021/08/08 08:11:02;;;;;;;5.47;2.88;;;19.50;99.90;;;;;;5016125;28;20212;-81
2021/08/08 08:13:29;;;;;;;6.72;2.50;;;19.60;99.90;;;;;;5004613;28;20234;-80
2021/08/08 08:15:57;;;;;;;3.75;2.03;;;19.80;99.90;;;;;;5011767;28;20590;-80
2021/08/08 08:18:25;;;;;;;6.03;2.50;;;19.80;99.90;;;;;;5018157;28;20287;-81
2021/08/08 08:20:52;;;;;;;2.88;2.08;;;19.60;99.90;;;;;;5010337;28;20207;-80
2021/08/08 08:23:21;;;;;;;7.75;2.58;;;19.50;99.90;;;;;;5009993;28;20295;-81
2021/08/08 08:25:48;;;;;;;5.28;2.60;;;19.70;99.90;;;;;;5014427;28;20225;-81
2021/08/08 08:28:15;;;;;;;3.53;2.30;;;19.80;99.90;;;;;;5018856;28;20227;-83
2021/08/08 08:30:42;;;;;;;5.43;2.20;;;19.80;99.90;;;;;;5019746;28;20266;-80
2021/08/08 08:33:09;;;;;;;4.05;2.15;;;19.80;99.90;;;;;;5008052;28;20211;-80
2021/08/08 08:35:38;;;;;;;3.35;2.00;;;19.70;99.90;;;;;;5007466;28;20228;-81
2021/08/08 08:38:05;;;;;;;6.80;2.38;;;19.80;99.90;;;;;;5012116;28;20220;-80
2021/08/08 08:40:36;;;;;;;4.68;2.10;;;20.00;99.90;;;;;;5016654;28;20665;-81
2021/08/08 08:43:06;;;;;;;6.45;2.20;;;20.00;99.90;;;;;;5006689;28;20205;-80
2021/08/08 08:45:34;;;;;;;8.43;2.28;;;20.00;99.90;;;;;;5014704;28;20220;-81
2021/08/08 08:48:02;;;;;;;3.88;1.92;;;19.90;99.90;;;;;;5013810;28;20668;-81
2021/08/08 08:50:29;;;;;;;5.28;2.45;;;20.00;99.90;;;;;;5011524;28;20555;-81
2021/08/08 08:52:58;;;;;;;3.08;1.83;;;20.20;99.90;;;;;;5012428;28;20214;-81
2021/08/08 08:55:25;;;;;;;4.53;2.05;;;20.30;99.90;;;;;;5016200;28;20231;-81
2021/08/08 08:57:52;;;;;;;5.97;2.08;;;20.60;99.90;;;;;;5014253;28;20215;-82
2021/08/08 09:00:22;;;;;;;4.57;2.45;;;20.70;99.90;;;;;;5014270;28;20197;-81
2021/08/08 09:02:48;;;;;;;5.63;1.80;;;21.00;99.90;;;;;;5011580;28;20707;-82
2021/08/08 09:05:15;;;;;;;5.85;2.10;;;21.40;99.90;;;;;;5013948;28;20682;-82
2021/08/08 09:07:42;;;;;;;4.50;1.67;;;21.40;99.90;;;;;;5010689;28;20227;-81
2021/08/08 09:10:15;;;;;;;4.45;1.90;;;20.70;99.90;;;;;;5010724;28;20233;-81
2021/08/08 09:12:43;;;;;;;5.63;2.10;;;20.50;99.90;;;;;;5011507;28;20292;-82
2021/08/08 09:15:12;;;;;;;2.20;1.80;;;20.40;99.90;;;;;;5009181;28;20274;-81
2021/08/08 09:17:40;;;;;;;4.03;2.15;;;20.20;99.90;;;;;;5013093;28;20293;-81
2021/08/08 09:20:09;;;;;;;4.15;2.05;;;20.10;99.90;;;;;;5011257;28;20231;-82
2021/08/08 09:22:36;;;;;;;3.33;2.15;;;19.80;99.90;;;;;;5008875;28;20204;-81
2021/08/08 09:25:05;;;;;;;3.65;1.88;;;19.80;99.90;;;;;;5008057;28;20227;-81
2021/08/08 09:27:37;;;;;;;3.22;1.95;;;19.80;99.90;;;;;;5008761;28;20259;-81
2021/08/08 09:30:07;;;;;;;2.88;1.88;;;19.70;99.90;;;;;;5007694;28;20213;-81
2021/08/08 09:32:35;;;;;;;3.20;2.03;;;19.70;99.90;;;;;;5008450;28;20661;-81
2021/08/08 09:35:07;;;;;;;2.78;1.75;;;19.70;99.90;;;;;;5010969;28;20220;-81
2021/08/08 09:37:35;;;;;;;4.93;1.90;;;19.60;99.90;;;;;;5012068;28;20728;-80
2021/08/08 09:40:03;;;;;;;5.95;2.05;;;19.80;99.90;;;;;;5009856;28;20224;-80
2021/08/08 09:42:32;;;;;;;8.38;4.00;;;19.80;99.90;;;;;;5011917;28;20288;-80
2021/08/08 09:45:02;;;;;;;5.47;2.90;;;19.80;99.90;;;;;;5013451;28;20200;-81
2021/08/08 09:47:39;;;;;;;3.42;2.00;;;19.90;99.90;;;;;;5011286;28;20234;-80
2021/08/08 09:50:09;;;;;;;5.82;1.90;;;19.70;99.90;;;;;;5004941;28;20291;-80
2021/08/08 10:25:48;;;;;;;3.80;2.30;;;19.50;99.90;;;;;;5058660;22;20631;-74
2021/08/08 10:28:16;;;;;;;5.45;3.00;;;19.70;99.90;;;;;;5013747;28;20695;-74
2021/08/08 10:30:44;;;;;;;5.63;2.40;;;19.90;99.90;;;;;;5008291;28;20550;-75
2021/08/08 10:33:11;;;;;;;3.67;2.00;;;20.00;99.90;;;;;;5010646;28;20197;-75
2021/08/08 10:35:40;;;;;;;3.58;2.00;;;20.00;99.90;;;;;;5009198;28;20229;-74
2021/08/08 10:38:08;;;;;;;4.63;2.03;;;20.20;99.90;;;;;;5007841;28;20201;-74
2021/08/08 10:40:37;;;;;;;5.00;2.10;;;20.40;99.90;;;;;;5005081;28;20204;-74
2021/08/08 10:43:06;;;;;;;4.57;2.47;;;20.50;99.90;;;;;;5009490;28;20672;-75
2021/08/08 10:45:35;;;;;;;4.90;1.77;;;20.50;99.90;;;;;;5010031;28;20208;-74
2021/08/08 10:48:04;;;;;;;2.20;1.92;;;20.80;99.90;;;;;;5008833;28;20205;-74
2021/08/08 10:50:40;;;;;;;3.20;1.85;;;20.90;99.90;;;;;;5008592;28;20638;-75
2021/08/08 10:53:19;;;;;;;2.97;1.92;;;20.90;99.90;;;;;;5005424;28;20207;-75
2021/08/08 10:55:47;;;;;;;8.35;2.08;;;21.10;99.90;;;;;;5008725;28;20231;-75
2021/08/08 10:58:15;;;;;;;2.67;1.90;;;21.50;99.90;;;;;;5009379;28;20683;-75
2021/08/08 11:00:44;;;;;;;8.18;2.53;;;21.20;99.90;;;;;;5008738;28;20207;-75
2021/08/08 11:03:13;;;;;;;5.55;1.90;;;21.10;99.90;;;;;;5008761;28;20214;-75
2021/08/08 11:05:40;;;;;;;5.78;2.20;;;20.90;99.90;;;;;;5008199;28;20192;-75
2021/08/08 11:08:08;;;;;;;2.78;1.55;;;21.30;99.90;;;;;;5010970;28;20211;-75
2021/08/08 11:10:39;;;;;;;2.53;1.80;;;21.20;99.90;;;;;;5009106;28;20219;-74
2021/08/08 11:13:18;;;;;;;3.35;1.90;;;21.40;99.90;;;;;;5008452;28;20196;-75
2021/08/08 11:15:46;;;;;;;4.68;3.17;;;21.70;99.90;;;;;;5008139;28;20223;-75
2021/08/08 11:18:13;;;;;;;5.80;2.47;;;22.00;99.90;;;;;;5002035;28;20200;-75
2021/08/08 11:20:41;;;;;;;5.13;2.40;;;21.60;99.90;;;;;;5010021;28;20215;-74
2021/08/08 11:23:08;;;;;;;4.35;2.00;;;22.10;99.90;;;;;;5003969;28;20534;-75
2021/08/08 11:25:39;;;;;;;1.92;1.75;;;22.20;99.90;;;;;;5006679;28;20303;-75
2021/08/08 11:28:07;;;;;;;4.05;2.28;;;21.90;99.90;;;;;;5008550;28;20209;-75
2021/08/08 11:30:46;;;;;;;4.25;1.80;;;22.10;99.90;;;;;;4998522;28;20200;-75
2021/08/08 11:33:14;;;;;;;2.97;2.10;;;22.10;99.90;;;;;;4998513;28;20212;-76
2021/08/08 11:35:43;;;;;;;4.18;2.17;;;21.80;99.90;;;;;;5004030;28;20234;-76
2021/08/08 11:38:15;;;;;;;7.57;2.60;;;21.80;99.90;;;;;;5002256;28;20216;-75
2021/08/08 11:40:45;;;;;;;2.65;2.05;;;21.60;99.90;;;;;;5004701;28;20210;-75
2021/08/08 11:43:13;;;;;;;3.42;2.03;;;21.80;99.90;;;;;;5004148;28;20210;-75
2021/08/08 11:45:42;;;;;;;5.57;2.13;;;21.70;99.90;;;;;;5007548;28;20200;-75
2021/08/08 11:48:11;;;;;;;3.10;1.83;;;21.80;99.90;;;;;;5003418;28;20201;-75
2021/08/08 11:50:40;;;;;;;3.63;2.00;;;22.10;99.90;;;;;;5007030;28;20200;-75
2021/08/08 11:53:09;;;;;;;5.38;1.95;;;22.00;99.90;;;;;;5005616;28;20291;-75
2021/08/08 11:55:37;;;;;;;2.83;2.10;;;22.80;99.90;;;;;;5007135;28;20713;-75
2021/08/08 11:58:05;;;;;;;4.15;1.90;;;23.40;99.90;;;;;;5005023;28;20689;-75
2021/08/08 12:00:33;;;;;;;3.20;2.00;;;23.50;99.90;;;;;;5006384;28;20211;-75
2021/08/08 12:03:00;;;;;;;2.45;2.17;;;23.60;99.90;;;;;;5001221;28;20203;-75
2021/08/08 12:05:29;;;;;;;3.47;1.90;;;23.80;99.90;;;;;;5005385;28;20709;-75
2021/08/08 12:07:57;;;;;;;3.35;1.50;;;23.80;99.90;;;;;;5002192;28;20208;-75
2021/08/08 12:10:28;;;;;;;4.00;2.17;;;23.60;99.90;;;;;;5001676;28;20627;-75
2021/08/08 12:12:55;;;;;;;5.97;2.00;;;23.30;99.90;;;;;;5003817;28;20214;-75
2021/08/08 12:15:32;;;;;;;3.78;2.17;;;22.40;99.90;;;;;;5003945;28;20227;-75
2021/08/08 12:17:59;;;;;;;3.75;1.90;;;22.00;99.90;;;;;;5002164;28;20204;-76
2021/08/08 12:20:34;;;;;;;4.28;1.98;;;22.10;99.90;;;;;;5003834;28;20639;-75
2021/08/08 12:23:05;;;;;;;2.67;1.83;;;21.80;99.90;;;;;;5007982;28;20564;-75
2021/08/08 12:25:32;;;;;;;2.00;1.70;;;22.30;99.90;;;;;;5001422;28;20263;-75
2021/08/08 12:27:59;;;;;;;3.58;2.10;;;22.80;99.90;;;;;;5006554;28;20662;-75
2021/08/08 12:30:28;;;;;;;3.53;1.90;;;22.50;99.90;;;;;;5007713;28;20201;-75
2021/08/08 12:33:04;;;;;;;2.35;1.92;;;22.80;99.90;;;;;;5010627;28;20308;-76
2021/08/08 12:35:39;;;;;;;3.78;1.85;;;22.50;99.90;;;;;;5010519;28;20224;-76
2021/08/08 12:38:08;;;;;;;2.10;1.90;;;22.60;99.90;;;;;;5010199;28;20226;-76
2021/08/08 12:40:46;;;;;;;3.70;1.83;;;22.40;99.90;;;;;;5009701;28;20204;-75
2021/08/08 12:43:20;;;;;;;2.50;1.90;;;22.90;99.90;;;;;;5010511;28;20208;-76
2021/08/08 12:45:47;;;;;;;7.53;2.17;;;23.00;99.90;;;;;;5008309;28;20666;-76
2021/08/08 12:48:15;;;;;;;3.90;2.00;;;23.00;99.90;;;;;;5006675;28;20299;-76
2021/08/08 12:50:46;;;;;;;3.50;1.67;;;23.20;99.90;;;;;;5005433;28;20208;-75
2021/08/08 12:53:13;;;;;;;4.22;2.05;;;22.80;99.90;;;;;;5010324;28;20242;-76
2021/08/08 12:55:40;;;;;;;3.75;1.88;;;23.10;99.90;;;;;;5006155;28;20228;-76
2021/08/08 12:58:07;;;;;;;3.60;1.70;;;23.50;99.90;;;;;;5010210;28;20231;-76
2021/08/08 13:00:34;;;;;;;4.68;1.70;;;23.70;99.90;;;;;;5003558;28;20201;-77
2021/08/08 13:03:03;;;;;;;1.95;1.65;;;23.80;99.90;;;;;;5009049;28;20666;-76
2021/08/08 13:05:30;;;;;;;3.90;1.92;;;23.90;99.90;;;;;;5010001;28;20200;-76
2021/08/08 13:07:58;;;;;;;4.80;1.70;;;24.20;99.90;;;;;;5009274;28;20548;-76
2021/08/08 13:10:25;;;;;;;8.20;1.85;;;23.80;99.90;;;;;;5003728;28;20207;-76
2021/08/08 13:12:52;;;;;;;3.60;2.00;;;22.70;99.90;;;;;;5007005;28;20578;-76
2021/08/08 13:15:20;;;;;;;3.30;1.63;;;22.50;99.90;;;;;;5008566;28;20719;-76
2021/08/08 13:17:47;;;;;;;3.80;1.80;;;22.50;99.90;;;;;;5009985;28;20220;-75
2021/08/08 13:20:16;;;;;;;3.78;2.20;;;22.40;99.90;;;;;;5011905;28;20857;-76
2021/08/08 13:22:43;;;;;;;3.78;2.05;;;22.30;99.90;;;;;;5010169;28;20213;-76
2021/08/08 13:25:13;;;;;;;4.55;1.92;;;22.90;99.90;;;;;;5012163;28;20212;-76